Terminal Aerodrome Forecast
Issued by NWS

Home | Current Version | Previous Version | Text Only | Print | Product List | Glossary On
Versions: 1 2 3 4 5 6 7 8 9 10 11 12 13 14 15 16 17 18 19 20
000
FTUS46 KMTR 302300
TAFMRY
TAF
KMRY 302320Z 3100/3124 29008KT P6SM SCT200
     FM310600 24005KT P6SM SCT005
     FM310800 10003KT 1SM BR OVC002
     FM311700 29009KT P6SM FEW200=

USA.gov is the U.S. government's official web portal to all federal, state and local government web resources and services.